| time (UTC) | temp C | wind direction | speed KPH | gust KPH | rain 1hr cm | rain 24hr cm | rain mn cm | humidity % | barometer mb |
| 20260506162658 | 14 | 235 | 9.7 | 9.7 | 0.23 | 0.36 | 0.36 | 99 | 1008.8 |
| 20260506162156 | 15 | 212 | 0.0 | 6.4 | 0.13 | 0.33 | 0.33 | 99 | 1008.8 |
| 20260506161653 | 15 | 220 | 8.0 | 8.0 | 0.05 | 0.33 | 0.33 | 99 | 1009.1 |
| 20260506161150 | 15 | 267 | 3.2 | 6.4 | 0.13 | 0.33 | 0.33 | 99 | 1009.0 |
| 20260506160648 | 15 | 169 | 4.8 | 6.4 | 0.18 | 0.30 | 0.30 | 99 | 1009.1 |
| 20260506160144 | 15 | 191 | 0.0 | 3.2 | 0.13 | 0.28 | 0.28 | 99 | 1009.5 |
| 20260506155643 | 14 | 268 | 3.2 | 8.0 | 0.13 | 0.28 | 0.28 | 99 | 1009.7 |
| 20260506155140 | 15 | 236 | 3.2 | 8.0 | 0.05 | 0.25 | 0.25 | 99 | 1009.3 |
| 20260506153242 | 15 | 240 | 3.2 | 4.8 | 0.13 | 0.25 | 0.25 | 99 | 1009.4 |
| 20260506152739 | 15 | 222 | 6.4 | 6.4 | 0.13 | 0.23 | 0.23 | 99 | 1009.3 |
| 20260506152236 | 15 | 180 | 0.0 | 6.4 | 0.18 | 0.23 | 0.23 | 99 | 1009.5 |
| 20260506151735 | 15 | 209 | 3.2 | 6.4 | 0.23 | 0.23 | 0.23 | 98 | 1009.4 |
| 20260506151231 | 15 | 232 | 0.0 | 4.8 | 0.18 | 0.20 | 0.20 | 98 | 1009.4 |
| 20260506150728 | 14 | 202 | 3.2 | 8.0 | 0.18 | 0.18 | 0.18 | 98 | 1009.6 |
| 20260506150225 | 15 | 329 | 0.0 | 6.4 | 0.13 | 0.15 | 0.15 | 98 | 1009.6 |
| 20260506145722 | 14 | 217 | 3.2 | 9.7 | 0.18 | 0.15 | 0.15 | 98 | 1009.7 |
| 20260506145218 | 15 | 191 | 3.2 | 4.8 | 0.18 | 0.15 | 0.15 | 98 | 1009.8 |
| 20260506144716 | 15 | 204 | 3.2 | 3.2 | 0.13 | 0.13 | 0.13 | 97 | 1009.9 |
| 20260506144213 | 15 | 208 | 0.0 | 4.8 | 0.13 | 0.10 | 0.10 | 97 | 1010.0 |
| 20260506143710 | 15 | 220 | 3.2 | 4.8 | 0.18 | 0.10 | 0.10 | 97 | 1010.0 |
| 20260506143208 | 15 | 215 | 1.6 | 3.2 | 0.18 | 0.10 | 0.10 | 96 | 1009.9 |
| 20260506142706 | 15 | 186 | 3.2 | 3.2 | 0.18 | 0.08 | 0.08 | 96 | 1010.0 |
| 20260506142204 | 15 | 204 | 1.6 | 3.2 | 0.13 | 0.05 | 0.05 | 95 | 1010.0 |
| 20260506141702 | 15 | 326 | 0.0 | 3.2 | 0.13 | 0.05 | 0.05 | 95 | 1010.0 |
| 20260506141159 | 15 | 249 | 1.6 | 3.2 | 0.05 | 0.03 | 0.03 | 94 | 1010.0 |
| 20260506140657 | 15 | 245 | 3.2 | 3.2 | 0.05 | 0.03 | 0.03 | 93 | 1010.1 |
| 20260506140154 | 15 | 227 | 3.2 | 9.7 | 0.05 | 0.03 | 0.03 | 92 | 1010.0 |
| 20260506135651 | 15 | 201 | 3.2 | 8.0 | 0.05 | 0.00 | 0.00 | 91 | 1010.2 |
| 20260506135147 | 15 | 266 | 3.2 | 6.4 | 0.05 | 0.00 | 0.00 | 89 | 1010.0 |
| 20260506134643 | 15 | 242 | 3.2 | 6.4 | 0.00 | 0.00 | 0.00 | 88 | 1010.3 |
| 20260506134140 | 15 | 196 | 3.2 | 11.3 | 0.00 | 0.00 | 0.00 | 87 | 1010.2 |
| 20260506133637 | 15 | 257 | 0.0 | 6.4 | 0.00 | 0.00 | 0.00 | 87 | 1010.2 |
| 20260506133134 | 15 | 221 | 4.8 | 11.3 | 0.00 | 0.00 | 0.00 | 87 | 1010.2 |
| 20260506132631 | 15 | 254 | 3.2 | 8.0 | 0.00 | 0.00 | 0.00 | 87 | 1010.0 |
| 20260506132128 | 15 | 196 | 11.3 | 14.5 | 0.00 | 0.00 | 0.00 | 88 | 1010.3 |
| 20260506131625 | 15 | 187 | 6.4 | 6.4 | 0.00 | 0.00 | 0.00 | 88 | 1010.1 |
| 20260506131121 | 15 | 228 | 4.8 | 20.9 | 0.00 | 0.00 | 0.00 | 88 | 1009.9 |
| 20260506130619 | 15 | 218 | 0.0 | 4.8 | 0.00 | 0.00 | 0.00 | 89 | 1009.8 |
| 20260506130116 | 15 | 232 | 3.2 | 6.4 | 0.00 | 0.00 | 0.00 | 88 | 1009.7 |
| 20260506125614 | 16 | 232 | 4.8 | 9.7 | 0.00 | 0.00 | 0.00 | 86 | 1009.8 |
| 20260506125112 | 15 | 221 | 6.4 | 6.4 | 0.00 | 0.00 | 0.00 | 88 | 1009.8 |
| 20260506124609 | 16 | 201 | 6.4 | 8.0 | 0.00 | 0.00 | 0.00 | 86 | 1009.6 |
| 20260506124107 | 16 | 131 | 3.2 | 8.0 | 0.00 | 0.00 | 0.00 | 85 | 1009.7 |
| 20260506123604 | 16 | 254 | 3.2 | 4.8 | 0.00 | 0.00 | 0.00 | 84 | 1009.7 |
| 20260506123103 | 16 | 204 | 3.2 | 6.4 | 0.00 | 0.00 | 0.00 | 83 | 1010.1 |
| 20260506122559 | 16 | 207 | 4.8 | 6.4 | 0.00 | 0.00 | 0.00 | 83 | 1009.9 |
| 20260506122057 | 16 | 230 | 6.4 | 9.7 | 0.00 | 0.00 | 0.00 | 82 | 1010.0 |
| 20260506121554 | 16 | 209 | 4.8 | 4.8 | 0.00 | 0.00 | 0.00 | 82 | 1010.1 |
| 20260506121050 | 16 | 162 | 4.8 | 6.4 | 0.00 | 0.00 | 0.00 | 82 | 1010.2 |
| 20260506120549 | 16 | 85 | 6.4 | 8.0 | 0.00 | 0.00 | 0.00 | 82 | 1010.0 |
| 20260506120045 | 16 | 216 | 3.2 | 6.4 | 0.00 | 0.00 | 0.00 | 82 | 1010.2 |
| 20260506115543 | 16 | 235 | 3.2 | 6.4 | 0.00 | 0.00 | 0.00 | 82 | 1010.1 |
| 20260506115042 | 16 | 210 | 3.2 | 6.4 | 0.00 | 0.00 | 0.00 | 82 | 1010.0 |
| 20260506114539 | 16 | 217 | 6.4 | 8.0 | 0.00 | 0.00 | 0.00 | 82 | 1010.0 |
| 20260506114037 | 16 | 252 | 6.4 | 14.5 | 0.00 | 0.00 | 0.00 | 81 | 1009.8 |
| 20260506113535 | 16 | 214 | 0.0 | 4.8 | 0.00 | 0.00 | 0.00 | 81 | 1010.0 |
| 20260506113032 | 16 | 197 | 1.6 | 4.8 | 0.00 | 0.00 | 0.00 | 81 | 1010.0 |
| 20260506112528 | 16 | 247 | 4.8 | 9.7 | 0.00 | 0.00 | 0.00 | 80 | 1009.9 |
| 20260506112025 | 16 | 212 | 3.2 | 11.3 | 0.00 | 0.00 | 0.00 | 80 | 1010.1 |
| 20260506111524 | 16 | 299 | 0.0 | 8.0 | 0.00 | 0.00 | 0.00 | 80 | 1009.9 |
| 20260506111020 | 16 | 260 | 1.6 | 8.0 | 0.00 | 0.00 | 0.00 | 80 | 1009.8 |
| 20260506110518 | 16 | 227 | 3.2 | 3.2 | 0.00 | 0.00 | 0.00 | 81 | 1009.8 |
| 20260506110015 | 16 | 254 | 1.6 | 3.2 | 0.00 | 0.00 | 0.00 | 80 | 1009.7 |
| 20260506105511 | 16 | 202 | 1.6 | 4.8 | 0.00 | 0.00 | 0.00 | 79 | 1009.8 |
| 20260506105009 | 16 | 257 | 3.2 | 4.8 | 0.00 | 0.00 | 0.00 | 79 | 1009.5 |
| 20260506104507 | 16 | 343 | 3.2 | 4.8 | 0.00 | 0.00 | 0.00 | 78 | 1009.6 |
| 20260506104004 | 16 | 150 | 0.0 | 6.4 | 0.00 | 0.00 | 0.00 | 78 | 1009.5 |
| 20260506103501 | 16 | 245 | 0.0 | 8.0 | 0.00 | 0.00 | 0.00 | 77 | 1009.5 |
| 20260506102958 | 16 | 113 | 1.6 | 3.2 | 0.00 | 0.00 | 0.00 | 77 | 1009.6 |
| 20260506102456 | 16 | 15 | 0.0 | 3.2 | 0.00 | 0.00 | 0.00 | 77 | 1009.8 |
| 20260506101953 | 16 | 259 | 1.6 | 4.8 | 0.00 | 0.00 | 0.00 | 77 | 1009.8 |
| 20260506101449 | 16 | 112 | 1.6 | 3.2 | 0.00 | 0.00 | 0.00 | 76 | 1009.8 |
| 20260506100947 | 16 | 224 | 3.2 | 6.4 | 0.00 | 0.00 | 0.00 | 76 | 1009.5 |
| 20260506100445 | 16 | 211 | 3.2 | 4.8 | 0.00 | 0.00 | 0.00 | 76 | 1009.5 |
| 20260506095943 | 16 | 237 | 6.4 | 6.4 | 0.00 | 0.00 | 0.00 | 76 | 1009.4 |
| 20260506095441 | 16 | 216 | 4.8 | 8.0 | 0.00 | 0.00 | 0.00 | 75 | 1009.8 |
| 20260506094937 | 16 | 180 | 3.2 | 4.8 | 0.00 | 0.00 | 0.00 | 75 | 1009.6 |
| 20260506094436 | 16 | 207 | 1.6 | 6.4 | 0.00 | 0.00 | 0.00 | 75 | 1009.8 |
| 20260506093933 | 16 | 236 | 3.2 | 4.8 | 0.00 | 0.00 | 0.00 | 75 | 1009.4 |
| 20260506093431 | 16 | 179 | 3.2 | 3.2 | 0.00 | 0.00 | 0.00 | 74 | 1009.5 |
| 20260506092928 | 16 | 249 | 3.2 | 3.2 | 0.00 | 0.00 | 0.00 | 74 | 1009.5 |
| 20260506092426 | 16 | 220 | 1.6 | 3.2 | 0.00 | 0.00 | 0.00 | 73 | 1009.4 |
| 20260506091922 | 16 | 306 | 3.2 | 3.2 | 0.00 | 0.00 | 0.00 | 73 | 1009.6 |
| 20260506091421 | 16 | 189 | 3.2 | 3.2 | 0.00 | 0.00 | 0.00 | 73 | 1009.8 |
| 20260506090917 | 16 | 278 | 1.6 | 3.2 | 0.00 | 0.00 | 0.00 | 72 | 1009.8 |
| 20260506090415 | 16 | 224 | 3.2 | 3.2 | 0.00 | 0.00 | 0.00 | 72 | 1009.8 |
| 20260506085912 | 16 | 141 | 1.6 | 8.0 | 0.00 | 0.00 | 0.00 | 71 | 1009.7 |
| 20260506085408 | 16 | 314 | 0.0 | 3.2 | 0.00 | 0.00 | 0.00 | 72 | 1009.7 |
| 20260506084904 | 16 | 178 | 3.2 | 6.4 | 0.00 | 0.00 | 0.00 | 72 | 1009.6 |
| 20260506084401 | 16 | 231 | 3.2 | 3.2 | 0.00 | 0.00 | 0.00 | 72 | 1009.6 |
| 20260506083858 | 16 | 205 | 0.0 | 3.2 | 0.00 | 0.00 | 0.00 | 72 | 1009.7 |
| 20260506083355 | 16 | 180 | 0.0 | 3.2 | 0.00 | 0.00 | 0.00 | 71 | 1009.7 |
| 20260506082852 | 16 | 165 | 3.2 | 6.4 | 0.00 | 0.00 | 0.00 | 72 | 1009.7 |
| 20260506082349 | 16 | 179 | 3.2 | 6.4 | 0.00 | 0.00 | 0.00 | 72 | 1009.7 |
| 20260506081845 | 16 | 238 | 1.6 | 3.2 | 0.00 | 0.00 | 0.00 | 72 | 1009.8 |
| 20260506081344 | 16 | 190 | 3.2 | 3.2 | 0.00 | 0.00 | 0.00 | 71 | 1009.9 |
| 20260506080841 | 16 | 241 | 3.2 | 3.2 | 0.00 | 0.00 | 0.00 | 70 | 1010.0 |
| 20260506080337 | 16 | 245 | 3.2 | 9.7 | 0.00 | 0.00 | 0.00 | 70 | 1009.9 |
| 20260506073321 | 17 | 257 | 0.0 | 3.2 | 0.00 | 0.00 | 0.00 | 68 | 1010.0 |
| 20260506072818 | 17 | 180 | 0.0 | 4.8 | 0.00 | 0.00 | 0.00 | 67 | 1009.8 |
| 20260506072316 | 17 | 160 | 1.6 | 3.2 | 0.00 | 0.00 | 0.00 | 67 | 1009.9 |
| 20260506071813 | 17 | 212 | 3.2 | 6.4 | 0.00 | 0.00 | 0.00 | 66 | 1010.0 |
| 20260506071311 | 17 | 224 | 4.8 | 9.7 | 0.00 | 0.00 | 0.00 | 66 | 1010.1 |
| 20260506070808 | 17 | 216 | 3.2 | 4.8 | 0.00 | 0.00 | 0.00 | 66 | 1010.0 |
| 20260506070305 | 17 | 236 | 3.2 | 4.8 | 0.00 | 0.00 | 0.00 | 65 | 1010.0 |
| 20260506062242 | 17 | 229 | 4.8 | 8.0 | 0.00 | 0.00 | 0.00 | 64 | 1010.4 |
| 20260506061738 | 17 | 226 | 4.8 | 8.0 | 0.00 | 0.00 | 0.00 | 64 | 1010.6 |
| 20260506061235 | 17 | 210 | 1.6 | 8.0 | 0.00 | 0.00 | 0.00 | 63 | 1010.5 |
| 20260506060734 | 18 | 238 | 9.7 | 12.9 | 0.00 | 0.00 | 0.00 | 63 | 1010.6 |
| 20260506060231 | 18 | 216 | 4.8 | 8.0 | 0.00 | 0.00 | 0.00 | 62 | 1010.6 |
| 20260506051203 | 18 | 229 | 6.4 | 9.7 | 0.00 | 0.00 | 0.00 | 60 | 1010.8 |
| 20260506050701 | 18 | 236 | 3.2 | 6.4 | 0.00 | 0.00 | 0.00 | 59 | 1010.5 |
| 20260506050158 | 18 | 185 | 4.8 | 8.0 | 0.00 | 0.00 | 0.00 | 58 | 1010.7 |
| 20260506044649 | 19 | 234 | 0.0 | 6.4 | 0.00 | 0.00 | 0.00 | 57 | 1010.7 |
| 20260506044145 | 19 | 223 | 3.2 | 6.4 | 0.00 | 0.00 | 0.00 | 56 | 1011.0 |
| 20260506043643 | 19 | 183 | 4.8 | 4.8 | 0.00 | 0.00 | 0.00 | 56 | 1010.7 |
| 20260506043140 | 19 | 223 | 4.8 | 8.0 | 0.00 | 0.00 | 0.00 | 56 | 1010.7 |
| 20260506042639 | 19 | 233 | 6.4 | 11.3 | 0.00 | 0.00 | 0.00 | 55 | 1010.7 |
| 20260506042137 | 19 | 224 | 4.8 | 12.9 | 0.00 | 0.00 | 0.00 | 55 | 1010.8 |
| 20260506041635 | 19 | 231 | 8.0 | 11.3 | 0.00 | 0.00 | 0.00 | 55 | 1010.7 |
| 20260506041132 | 19 | 247 | 3.2 | 6.4 | 0.00 | 0.00 | 0.00 | 55 | 1010.7 |
| 20260506040629 | 19 | 218 | 8.0 | 9.7 | 0.00 | 0.00 | 0.00 | 55 | 1010.8 |
| 20260506040126 | 19 | 227 | 6.4 | 11.3 | 0.00 | 0.00 | 0.00 | 55 | 1010.5 |
| 20260506035623 | 19 | 223 | 4.8 | 9.7 | 0.00 | 0.00 | 0.00 | 55 | 1010.5 |
| 20260506035119 | 19 | 211 | 3.2 | 12.9 | 0.00 | 0.00 | 0.00 | 55 | 1010.8 |
| 20260506034617 | 19 | 179 | 3.2 | 8.0 | 0.00 | 0.00 | 0.00 | 54 | 1010.5 |
| 20260506034114 | 20 | 210 | 4.8 | 14.5 | 0.00 | 0.00 | 0.00 | 54 | 1010.7 |
| 20260506033611 | 20 | 241 | 6.4 | 9.7 | 0.00 | 0.00 | 0.00 | 54 | 1010.5 |
| 20260506033108 | 19 | 143 | 3.2 | 8.0 | 0.00 | 0.00 | 0.00 | 54 | 1010.5 |
| 20260506032606 | 20 | 230 | 3.2 | 6.4 | 0.00 | 0.00 | 0.00 | 54 | 1010.5 |
| 20260506032102 | 20 | 234 | 4.8 | 6.4 | 0.00 | 0.00 | 0.00 | 54 | 1010.5 |
| 20260506031559 | 20 | 244 | 3.2 | 14.5 | 0.00 | 0.00 | 0.00 | 54 | 1010.5 |
| 20260506031056 | 20 | 121 | 3.2 | 6.4 | 0.00 | 0.00 | 0.00 | 53 | 1010.5 |
| 20260506030555 | 20 | 171 | 0.0 | 6.4 | 0.00 | 0.00 | 0.00 | 53 | 1010.7 |
| 20260506030051 | 20 | 214 | 4.8 | 8.0 | 0.00 | 0.00 | 0.00 | 53 | 1010.6 |
| 20260506025548 | 20 | 204 | 6.4 | 9.7 | 0.00 | 0.00 | 0.00 | 52 | 1010.7 |
| 20260506025044 | 20 | 241 | 3.2 | 9.7 | 0.00 | 0.00 | 0.00 | 52 | 1010.4 |
| 20260506024542 | 20 | 192 | 4.8 | 4.8 | 0.00 | 0.00 | 0.00 | 51 | 1010.5 |
| 20260506024038 | 20 | 217 | 1.6 | 6.4 | 0.00 | 0.00 | 0.00 | 52 | 1010.8 |
| 20260506023534 | 20 | 152 | 0.0 | 8.0 | 0.00 | 0.00 | 0.00 | 49 | 1010.8 |
| 20260506023032 | 20 | 212 | 0.0 | 6.4 | 0.00 | 0.00 | 0.00 | 50 | 1010.6 |
| 20260506022529 | 20 | 228 | 3.2 | 4.8 | 0.00 | 0.00 | 0.00 | 50 | 1010.7 |
| 20260506022026 | 20 | 195 | 1.6 | 4.8 | 0.00 | 0.00 | 0.00 | 49 | 1010.6 |
| 20260506021524 | 21 | 221 | 1.6 | 3.2 | 0.00 | 0.00 | 0.00 | 49 | 1010.5 |
| 20260506021021 | 21 | 248 | 4.8 | 8.0 | 0.00 | 0.00 | 0.00 | 47 | 1010.6 |
| 20260506020518 | 21 | 111 | 3.2 | 11.3 | 0.00 | 0.00 | 0.00 | 48 | 1010.5 |
| 20260506020016 | 21 | 230 | 8.0 | 8.0 | 0.00 | 0.00 | 0.00 | 48 | 1010.7 |
| 20260506015513 | 21 | 121 | 12.9 | 12.9 | 0.00 | 0.00 | 0.00 | 48 | 1010.4 |
| 20260506015010 | 21 | 229 | 3.2 | 6.4 | 0.00 | 0.00 | 0.00 | 47 | 1010.4 |
| 20260506014507 | 21 | 235 | 8.0 | 11.3 | 0.00 | 0.00 | 0.00 | 47 | 1010.2 |
| 20260506014003 | 21 | 222 | 3.2 | 6.4 | 0.00 | 0.00 | 0.00 | 47 | 1010.3 |
| 20260506013501 | 21 | 126 | 1.6 | 12.9 | 0.00 | 0.00 | 0.00 | 47 | 1010.0 |
| 20260506012957 | 21 | 225 | 9.7 | 9.7 | 0.00 | 0.00 | 0.00 | 46 | 1010.2 |
| 20260506012453 | 21 | 211 | 4.8 | 12.9 | 0.00 | 0.00 | 0.00 | 47 | 1010.2 |
| 20260506011951 | 21 | 234 | 6.4 | 16.1 | 0.00 | 0.00 | 0.00 | 47 | 1009.9 |
| 20260506011448 | 21 | 142 | 0.0 | 6.4 | 0.00 | 0.00 | 0.00 | 48 | 1010.0 |
| 20260506010944 | 21 | 197 | 0.0 | 6.4 | 0.00 | 0.00 | 0.00 | 46 | 1010.1 |
| 20260506010444 | 21 | 215 | 0.0 | 6.4 | 0.00 | 0.00 | 0.00 | 47 | 1010.1 |
| 20260506005939 | 21 | 222 | 6.4 | 8.0 | 0.00 | 0.00 | 0.00 | 46 | 1009.8 |
| 20260506005438 | 21 | 126 | 4.8 | 6.4 | 0.00 | 0.00 | 0.00 | 48 | 1009.8 |
| 20260506004932 | 21 | 252 | 4.8 | 9.7 | 0.00 | 0.00 | 0.00 | 47 | 1009.7 |
| 20260506004431 | 21 | 122 | 3.2 | 6.4 | 0.00 | 0.00 | 0.00 | 48 | 1009.6 |
| 20260506003926 | 21 | 225 | 3.2 | 6.4 | 0.00 | 0.00 | 0.00 | 49 | 1009.6 |
| 20260506003423 | 22 | 190 | 3.2 | 8.0 | 0.00 | 0.00 | 0.00 | 47 | 1009.6 |
| 20260506002920 | 21 | 171 | 3.2 | 9.7 | 0.00 | 0.00 | 0.00 | 47 | 1009.5 |
| 20260506002415 | 22 | 205 | 0.0 | 6.4 | 0.00 | 0.00 | 0.00 | 47 | 1009.6 |
| 20260506001911 | 22 | 257 | 6.4 | 8.0 | 0.00 | 0.00 | 0.00 | 46 | 1009.5 |
| 20260506001408 | 22 | 212 | 3.2 | 6.4 | 0.00 | 0.00 | 0.00 | 46 | 1009.5 |
| 20260506000906 | 22 | 205 | 3.2 | 11.3 | 0.00 | 0.00 | 0.00 | 48 | 1009.3 |
| 20260506000403 | 22 | 206 | 3.2 | 6.4 | 0.00 | 0.00 | 0.00 | 46 | 1009.3 |
| 20260505235859 | 22 | 249 | 6.4 | 9.7 | 0.00 | 0.00 | 0.00 | 45 | 1009.2 |
| 20260505235358 | 22 | 205 | 0.0 | 14.5 | 0.00 | 0.00 | 0.00 | 46 | 1009.4 |
| 20260505234854 | 22 | 285 | 1.6 | 8.0 | 0.00 | 0.00 | 0.00 | 46 | 1009.4 |
| 20260505234352 | 22 | 209 | 4.8 | 11.3 | 0.00 | 0.00 | 0.00 | 45 | 1009.4 |
| 20260505233848 | 22 | 163 | 0.0 | 6.4 | 0.00 | 0.00 | 0.00 | 46 | 1009.4 |
| 20260505233346 | 22 | 135 | 3.2 | 11.3 | 0.00 | 0.00 | 0.00 | 46 | 1009.3 |
| 20260505232844 | 22 | 138 | 1.6 | 8.0 | 0.00 | 0.00 | 0.00 | 45 | 1009.3 |
| 20260505232342 | 22 | 102 | 3.2 | 9.7 | 0.00 | 0.00 | 0.00 | 45 | 1009.2 |
| 20260505231838 | 22 | 267 | 6.4 | 8.0 | 0.00 | 0.00 | 0.00 | 44 | 1009.1 |
| 20260505231335 | 23 | 221 | 11.3 | 20.9 | 0.00 | 0.00 | 0.00 | 43 | 1009.0 |
| 20260505230833 | 23 | 285 | 0.0 | 8.0 | 0.00 | 0.00 | 0.00 | 44 | 1008.9 |
| 20260505230330 | 23 | 237 | 9.7 | 9.7 | 0.00 | 0.00 | 0.00 | 43 | 1008.9 |
| 20260505225827 | 23 | 274 | 6.4 | 14.5 | 0.00 | 0.00 | 0.00 | 42 | 1009.0 |
| 20260505225324 | 23 | 256 | 9.7 | 12.9 | 0.00 | 0.00 | 0.00 | 42 | 1008.9 |
| 20260505224819 | 23 | 180 | 3.2 | 17.7 | 0.00 | 0.00 | 0.00 | 43 | 1009.1 |
| 20260505224317 | 23 | 234 | 8.0 | 14.5 | 0.00 | 0.00 | 0.00 | 43 | 1008.9 |
| 20260505223814 | 23 | 243 | 4.8 | 14.5 | 0.00 | 0.00 | 0.00 | 43 | 1008.8 |
| 20260505223311 | 23 | 245 | 8.0 | 14.5 | 0.00 | 0.00 | 0.00 | 43 | 1008.7 |
| 20260505222807 | 23 | 254 | 9.7 | 14.5 | 0.00 | 0.00 | 0.00 | 42 | 1008.7 |
| 20260505222305 | 23 | 205 | 3.2 | 11.3 | 0.00 | 0.00 | 0.00 | 44 | 1008.6 |
| 20260505221800 | 23 | 227 | 14.5 | 14.5 | 0.00 | 0.00 | 0.00 | 45 | 1008.5 |
| 20260505221257 | 23 | 107 | 3.2 | 4.8 | 0.00 | 0.00 | 0.00 | 47 | 1008.7 |
| 20260505220754 | 23 | 168 | 3.2 | 8.0 | 0.00 | 0.00 | 0.00 | 49 | 1008.5 |
| 20260505220251 | 23 | 212 | 3.2 | 4.8 | 0.00 | 0.00 | 0.00 | 44 | 1008.7 |
| 20260505215749 | 24 | 273 | 8.0 | 9.7 | 0.00 | 0.00 | 0.00 | 38 | 1008.4 |
| 20260505215247 | 24 | 249 | 6.4 | 6.4 | 0.00 | 0.00 | 0.00 | 39 | 1008.5 |
| 20260505214744 | 24 | 233 | 8.0 | 9.7 | 0.00 | 0.00 | 0.00 | 38 | 1008.4 |
| 20260505214242 | 24 | 277 | 0.0 | 8.0 | 0.00 | 0.00 | 0.00 | 37 | 1008.4 |
| 20260505213739 | 25 | 244 | 9.7 | 14.5 | 0.00 | 0.00 | 0.00 | 36 | 1008.2 |
| 20260505213236 | 25 | 232 | 11.3 | 17.7 | 0.00 | 0.00 | 0.00 | 36 | 1007.8 |
| 20260505212732 | 25 | 212 | 1.6 | 9.7 | 0.00 | 0.00 | 0.00 | 35 | 1008.1 |
| 20260505212229 | 25 | 278 | 11.3 | 17.7 | 0.00 | 0.00 | 0.00 | 35 | 1007.8 |
| 20260505211726 | 24 | 144 | 8.0 | 14.5 | 0.00 | 0.00 | 0.00 | 35 | 1008.4 |
| 20260505211224 | 24 | 168 | 6.4 | 17.7 | 0.00 | 0.00 | 0.00 | 35 | 1008.3 |
| 20260505210720 | 24 | 198 | 4.8 | 12.9 | 0.00 | 0.00 | 0.00 | 36 | 1008.1 |
| 20260505210217 | 25 | 240 | 6.4 | 14.5 | 0.00 | 0.00 | 0.00 | 35 | 1008.2 |
| 20260505205714 | 25 | 275 | 9.7 | 25.7 | 0.00 | 0.00 | 0.00 | 34 | 1008.1 |
| 20260505205212 | 25 | 219 | 9.7 | 20.9 | 0.00 | 0.00 | 0.00 | 35 | 1008.1 |
| 20260505204708 | 25 | 242 | 11.3 | 17.7 | 0.00 | 0.00 | 0.00 | 34 | 1008.2 |
| 20260505204207 | 25 | 222 | 9.7 | 14.5 | 0.00 | 0.00 | 0.00 | 34 | 1008.2 |
| 20260505203704 | 25 | 232 | 11.3 | 16.1 | 0.00 | 0.00 | 0.00 | 35 | 1008.2 |
| 20260505203200 | 25 | 205 | 4.8 | 19.3 | 0.00 | 0.00 | 0.00 | 34 | 1008.1 |
| 20260505202656 | 25 | 199 | 8.0 | 16.1 | 0.00 | 0.00 | 0.00 | 34 | 1007.8 |
| 20260505202152 | 26 | 221 | 6.4 | 16.1 | 0.00 | 0.00 | 0.00 | 33 | 1007.8 |
| 20260505201648 | 26 | 222 | 12.9 | 32.2 | 0.00 | 0.00 | 0.00 | 32 | 1007.8 |
| 20260505201147 | 26 | 217 | 11.3 | 20.9 | 0.00 | 0.00 | 0.00 | 33 | 1008.1 |
| 20260505200645 | 26 | 239 | 9.7 | 19.3 | 0.00 | 0.00 | 0.00 | 33 | 1008.1 |
| 20260505200141 | 27 | 214 | 12.9 | 14.5 | 0.00 | 0.00 | 0.00 | 34 | 1008.2 |
| 20260505195637 | 27 | 272 | 3.2 | 6.4 | 0.00 | 0.00 | 0.00 | 33 | 1008.2 |
| 20260505195135 | 26 | 232 | 8.0 | 24.1 | 0.00 | 0.00 | 0.00 | 34 | 1008.1 |
| 20260505194632 | 26 | 213 | 9.7 | 30.6 | 0.00 | 0.00 | 0.00 | 34 | 1008.4 |
| 20260505194127 | 27 | 216 | 4.8 | 8.0 | 0.00 | 0.00 | 0.00 | 34 | 1008.3 |
| 20260505193625 | 26 | 238 | 8.0 | 16.1 | 0.00 | 0.00 | 0.00 | 36 | 1008.5 |
| 20260505193121 | 26 | 220 | 6.4 | 17.7 | 0.00 | 0.00 | 0.00 | 35 | 1008.7 |
| 20260505192620 | 26 | 225 | 8.0 | 14.5 | 0.00 | 0.00 | 0.00 | 35 | 1008.7 |
| 20260505192117 | 26 | 234 | 9.7 | 14.5 | 0.00 | 0.00 | 0.00 | 35 | 1008.5 |
| 20260505191616 | 26 | 252 | 6.4 | 12.9 | 0.00 | 0.00 | 0.00 | 36 | 1008.7 |
| 20260505191113 | 25 | 299 | 1.6 | 12.9 | 0.00 | 0.00 | 0.00 | 36 | 1008.8 |
| 20260505190608 | 26 | 216 | 6.4 | 17.7 | 0.00 | 0.00 | 0.00 | 37 | 1008.9 |
| 20260505190104 | 25 | 239 | 8.0 | 17.7 | 0.00 | 0.00 | 0.00 | 36 | 1008.9 |
| 20260505185601 | 26 | 251 | 20.9 | 22.5 | 0.00 | 0.00 | 0.00 | 36 | 1008.7 |
| 20260505185057 | 27 | 232 | 9.7 | 9.7 | 0.00 | 0.00 | 0.00 | 36 | 1009.1 |
| 20260505184554 | 26 | 232 | 11.3 | 19.3 | 0.00 | 0.00 | 0.00 | 36 | 1009.2 |
| 20260505184051 | 26 | 261 | 9.7 | 22.5 | 0.00 | 0.00 | 0.00 | 38 | 1009.1 |
| 20260505183547 | 25 | 218 | 9.7 | 14.5 | 0.00 | 0.00 | 0.00 | 40 | 1009.3 |
| 20260505183045 | 26 | 237 | 6.4 | 22.5 | 0.00 | 0.00 | 0.00 | 38 | 1009.3 |
| 20260505182541 | 27 | 240 | 1.6 | 14.5 | 0.00 | 0.00 | 0.00 | 38 | 1009.6 |
| 20260505182038 | 26 | 248 | 12.9 | 20.9 | 0.00 | 0.00 | 0.00 | 37 | 1009.3 |
| 20260505181535 | 25 | 216 | 12.9 | 17.7 | 0.00 | 0.00 | 0.00 | 39 | 1009.4 |
| 20260505181032 | 26 | 239 | 12.9 | 20.9 | 0.00 | 0.00 | 0.00 | 40 | 1009.3 |
| 20260505180527 | 26 | 243 | 14.5 | 22.5 | 0.00 | 0.00 | 0.00 | 39 | 1009.7 |
| 20260505180026 | 26 | 254 | 17.7 | 22.5 | 0.00 | 0.00 | 0.00 | 38 | 1009.5 |
| 20260505175520 | 26 | 248 | 11.3 | 12.9 | 0.00 | 0.00 | 0.00 | 38 | 1009.5 |
| 20260505175018 | 26 | 174 | 8.0 | 17.7 | 0.00 | 0.00 | 0.00 | 39 | 1009.7 |
| 20260505174514 | 25 | 190 | 12.9 | 24.1 | 0.00 | 0.00 | 0.00 | 38 | 1009.6 |
| 20260505174010 | 25 | 262 | 12.9 | 20.9 | 0.00 | 0.00 | 0.00 | 39 | 1009.8 |
| 20260505173507 | 25 | 234 | 14.5 | 17.7 | 0.00 | 0.00 | 0.00 | 40 | 1009.6 |
| 20260505173004 | 25 | 196 | 9.7 | 12.9 | 0.00 | 0.00 | 0.00 | 43 | 1009.7 |
| 20260505172503 | 26 | 185 | 4.8 | 14.5 | 0.00 | 0.00 | 0.00 | 41 | 1009.7 |
| 20260505172003 | 25 | 225 | 8.0 | 20.9 | 0.00 | 0.00 | 0.00 | 42 | 1009.9 |
| 20260505171459 | 26 | 130 | 9.7 | 17.7 | 0.00 | 0.00 | 0.00 | 40 | 1010.0 |
| 20260505170955 | 25 | 224 | 14.5 | 16.1 | 0.00 | 0.00 | 0.00 | 42 | 1009.8 |
| 20260505170452 | 26 | 180 | 9.7 | 17.7 | 0.00 | 0.00 | 0.00 | 42 | 1009.8 |
| 20260505165948 | 25 | 223 | 16.1 | 16.1 | 0.00 | 0.00 | 0.00 | 41 | 1009.9 |
| 20260505165444 | 23 | 264 | 8.0 | 14.5 | 0.00 | 0.00 | 0.00 | 44 | 1010.0 |
| 20260505164939 | 25 | 140 | 8.0 | 17.7 | 0.00 | 0.00 | 0.00 | 42 | 1010.1 |
| 20260505164436 | 25 | 183 | 3.2 | 9.7 | 0.00 | 0.00 | 0.00 | 45 | 1010.0 |
| 20260505163934 | 25 | 256 | 4.8 | 14.5 | 0.00 | 0.00 | 0.00 | 45 | 1010.2 |
| 20260505163433 | 25 | 240 | 6.4 | 14.5 | 0.00 | 0.00 | 0.00 | 45 | 1010.3 |
| 20260505162932 | 25 | 226 | 9.7 | 9.7 | 0.00 | 0.00 | 0.00 | 50 | 1010.4 |